Ana Sayfa
METAR-TAF:

METAR-TAF

Havaalanları :

Mürted Hava Üssü

Akıncı, Türkiye

Enlem: 40-05N, Boylam: 032-34E, yükseklik: 843 m

METAR: eksik

Saat: 15:59 (12:59 UTC)

Tahmin

Rapor saat 10:40 UTC de 2 saat ve 19 dakika önce yapıldı.
Ayın 20'si saat 12 UTC'den ayın 20'si saat 21 UTC'ye kadar geçerli Tahmin
Rüzgar değişken yönden 2 kt
Görüş mesafesi 10 km veya daha fazla
4000 ft yükseklikte az bulutlu
Dönüşüyor
ayın 20'si saat 15 UTC'den ayın 20'si saat 18 UTC'ye kadar
Görüş mesafesi 10 km veya daha fazla
1500 m altında bulut yok ve kümülonimbus yok

TAF: LTAE 201040Z 2012/2021 VRB02KT 9999 FEW040 BECMG 2015/2018 CAVOK

4.000'den fazla havaalanı için hava durumu gözlemleri ve tahminleri (METAR ve TAF raporları).

Kullanılabilir istasyonlar harita üzerinde sarı ve kırmızı noktalarla gösterilir.

İstasyonun adını görmek için fareyi noktanın üzerinde gezdirin.

Sonrasında hava gözlem ve tahminlerini görmek için tıklayın.

Haritayı değiştirmek için: yaklaştırmak için siyah artı işaretli yeşil düğmeye ve uzaklaştırmak için de eksi işaretli düğmeye hızla tıklayın; bitişik haritalar için yeşil okları kullanın.


METAR-TAF: